createdAt,value
2023-04-23T00:01:53.526Z,1.00
2023-04-23T00:11:58.078Z,1.10
2023-04-23T00:22:03.079Z,0.97
2023-04-23T00:32:07.713Z,1.10
2023-04-23T00:42:13.701Z,1.03
2023-04-23T00:52:17.448Z,0.97
2023-04-23T01:02:22.618Z,0.90
2023-04-23T01:12:26.391Z,1.10
2023-04-23T01:22:31.390Z,1.43
2023-04-23T01:32:35.994Z,1.60
2023-04-23T01:42:41.750Z,1.40
2023-04-23T01:52:46.414Z,1.43
2023-04-23T02:02:52.836Z,2.70
2023-04-23T02:12:56.605Z,1.80
2023-04-23T02:23:02.234Z,1.80
2023-04-23T02:33:07.444Z,2.43
2023-04-23T02:43:12.326Z,2.40
2023-04-23T02:53:16.306Z,1.67
2023-04-23T03:03:21.479Z,2.53
2023-04-23T03:13:25.836Z,2.67
2023-04-23T03:23:30.956Z,2.67
2023-04-23T03:33:34.777Z,2.30
2023-04-23T03:43:39.679Z,2.43
2023-04-23T03:53:43.435Z,1.60
2023-04-23T04:03:48.810Z,2.27
2023-04-23T04:13:55.603Z,1.57
2023-04-23T04:24:04.658Z,2.57
2023-04-23T04:34:10.513Z,2.20
2023-04-23T04:44:16.587Z,1.93
2023-04-23T04:54:21.855Z,1.10
2023-04-23T05:04:26.847Z,1.70
2023-04-23T05:14:30.613Z,1.80
2023-04-23T05:24:38.510Z,1.87
2023-04-23T05:34:42.387Z,1.77
2023-04-23T05:44:47.584Z,1.20
2023-04-23T05:54:51.607Z,1.53
2023-04-23T06:04:56.801Z,1.63
2023-04-23T06:15:00.715Z,1.30
2023-04-23T06:25:07.312Z,1.23
2023-04-23T06:35:11.130Z,1.57
2023-04-23T06:45:16.884Z,1.27
2023-04-23T06:55:22.001Z,1.00
2023-04-23T07:05:27.172Z,1.63
2023-04-23T07:15:30.755Z,1.70
2023-04-23T07:25:35.686Z,1.42
2023-04-23T07:35:39.291Z,1.88
2023-04-23T07:45:44.278Z,1.20
2023-04-23T07:55:47.981Z,1.38
2023-04-23T08:05:52.995Z,1.85
2023-04-23T08:15:56.616Z,1.70
2023-04-23T08:26:02.843Z,1.40
2023-04-23T08:36:06.874Z,1.70
2023-04-23T08:46:14.315Z,2.63
2023-04-23T08:56:18.380Z,1.90
2023-04-23T09:06:23.473Z,2.10
2023-04-23T09:16:28.171Z,2.17
2023-04-23T09:26:33.192Z,1.08
2023-04-23T09:36:38.330Z,0.70
2023-04-23T09:46:45.464Z,1.23
2023-04-23T09:56:53.725Z,0.93
2023-04-23T10:17:11.936Z,0.60
2023-04-23T10:27:30.808Z,0.80
2023-04-23T10:37:41.340Z,0.85
2023-04-23T10:47:47.263Z,0.60
2023-04-23T10:58:01.628Z,0.57
2023-04-23T11:08:18.809Z,0.80
2023-04-23T11:18:25.290Z,0.50
2023-04-23T11:28:34.281Z,0.70
2023-04-23T11:38:38.735Z,4.07
2023-04-23T11:48:43.716Z,1.08
2023-04-23T11:58:47.541Z,1.05
2023-04-23T12:08:52.648Z,0.50
2023-04-23T12:18:56.371Z,0.50
2023-04-23T12:29:01.459Z,0.50
2023-04-23T12:39:27.365Z,0.43
2023-04-23T12:49:33.261Z,0.68
2023-04-23T12:59:36.859Z,0.43
2023-04-23T13:09:42.251Z,0.50
2023-04-23T13:19:46.421Z,0.60
2023-04-23T13:29:51.403Z,0.60
2023-04-23T13:39:54.972Z,0.52
2023-04-23T13:50:00.002Z,1.00
2023-04-23T14:00:04.197Z,0.30
2023-04-23T14:10:10.601Z,0.40
2023-04-23T14:20:15.855Z,0.40
2023-04-23T14:30:24.880Z,0.60
2023-04-23T14:40:28.461Z,0.63
2023-04-23T14:50:33.592Z,0.60
2023-04-23T15:00:37.783Z,0.50
2023-04-23T15:10:44.966Z,0.45
2023-04-23T15:20:48.916Z,0.60
2023-04-23T15:30:54.280Z,0.55
2023-04-23T15:40:57.962Z,0.57
2023-04-23T15:51:02.892Z,0.60
2023-04-23T16:01:07.307Z,0.60
2023-04-23T16:11:14.718Z,0.30
2023-04-23T16:21:18.426Z,0.30
2023-04-23T16:31:23.745Z,0.65
2023-04-23T16:41:27.512Z,0.20
2023-04-23T16:51:33.062Z,0.88
2023-04-23T17:01:36.811Z,0.90
2023-04-23T17:11:42.032Z,0.50
2023-04-23T17:21:45.890Z,0.30
2023-04-23T17:31:51.254Z,0.60
2023-04-23T17:41:57.612Z,0.50
2023-04-23T17:52:03.366Z,0.47
2023-04-23T18:02:07.222Z,0.47
2023-04-23T18:12:12.228Z,1.08
2023-04-23T18:22:16.492Z,0.38
2023-04-23T18:32:33.634Z,0.75
2023-04-23T18:42:38.366Z,0.70
2023-04-23T18:52:43.422Z,0.43
2023-04-23T19:02:48.476Z,0.60
2023-04-23T19:12:57.184Z,0.57
2023-04-23T19:23:01.372Z,0.60
2023-04-23T19:33:06.501Z,0.70
2023-04-23T19:43:12.186Z,0.60
2023-04-23T19:53:18.506Z,0.73
2023-04-23T20:03:22.443Z,0.50
2023-04-23T20:13:27.638Z,0.73
2023-04-23T20:23:31.418Z,0.80
2023-04-23T20:33:37.405Z,0.60
2023-04-23T20:43:43.670Z,1.07
2023-04-23T20:53:49.299Z,0.50
2023-04-23T21:03:53.754Z,0.70
2023-04-23T21:14:00.956Z,0.47
2023-04-23T21:24:04.993Z,0.40
2023-04-23T21:34:10.303Z,0.80
2023-04-23T21:44:14.232Z,0.40
2023-04-23T21:54:19.169Z,0.33
2023-04-23T22:04:23.092Z,0.20
2023-04-23T22:14:28.183Z,0.50
2023-04-23T22:24:31.962Z,0.20
2023-04-23T22:34:36.991Z,0.10
2023-04-23T22:44:40.711Z,0.30
2023-04-23T22:54:46.753Z,0.20
2023-04-23T23:04:50.863Z,0.27
2023-04-23T23:14:56.095Z,0.20
2023-04-23T23:24:59.990Z,0.20
2023-04-23T23:35:06.436Z,0.23
2023-04-23T23:45:11.266Z,0.30
2023-04-23T23:55:16.329Z,0.20
